ADDS METAR Data INFO
IDs: Format: Raw Decoded Include TAF

Data at: 0150 UTC 17 Oct 2017

KHAF 170135Z AUTO 00000KT 2SM HZ CLR 17/08 A3001 RMK AO2
KHAF 170110Z AUTO 00000KT 3SM HZ CLR 18/08 A3001 RMK AO2
KHAF 170055Z AUTO 00000KT 8SM CLR 20/05 A3001 RMK AO2
KHAF 170035Z AUTO 30003KT 7SM CLR 21/05 A3001 RMK AO2
KHAF 170015Z AUTO 32005KT 9SM CLR 21/05 A3001 RMK AO2
KHAF 162355Z AUTO 30005KT 9SM CLR 22/04 A3002 RMK AO2
KHAF 162335Z AUTO 30003KT 4SM HZ CLR 23/05 A3002 RMK AO2
KHAF 162315Z AUTO 00000KT 3SM HZ CLR 22/03 A3003 RMK AO2
KHAF 162250Z AUTO 00000KT 5SM HZ CLR 21/04 A3003 RMK AO2
KHAF 162235Z AUTO 16007KT 5SM HZ CLR 20/05 A3003 RMK AO2
KHAF 162215Z AUTO 16008KT 4SM HZ CLR 20/07 A3003 RMK AO2
KHAF 162155Z AUTO 16007KT 5SM HZ CLR 20/08 A3003 RMK AO2
KHAF 162130Z AUTO 15007KT 4SM HZ CLR 20/09 A3004 RMK AO2
KHAF 162115Z AUTO 17006KT 8SM CLR 24/05 A3004 RMK AO2
KHAF 162055Z AUTO 26005KT 10SM CLR 25/02 A3004 RMK AO2
KHAF 162030Z AUTO 31004KT 9SM CLR 25/03 A3005 RMK AO2
KHAF 162015Z AUTO 30006KT 10SM CLR 23/02 A3006 RMK AO2
KHAF 161955Z AUTO 31005KT 10SM CLR 24/03 A3006 RMK AO2
KHAF 161935Z AUTO 29005KT 10SM CLR 23/03 A3007 RMK AO2
KHAF 161910Z AUTO 31004KT 9SM CLR 23/05 A3008 RMK AO2
KHAF 161855Z AUTO 00000KT 10SM CLR 20/06 A3009 RMK AO2
KHAF 161835Z AUTO 29005KT 10SM CLR 22/06 A3009 RMK AO2
KHAF 161815Z AUTO 31006KT 9SM CLR 23/04 A3010 RMK AO2
KHAF 161755Z AUTO 28007KT 8SM CLR 24/05 A3010 RMK AO2
KHAF 161735Z AUTO 30005KT 9SM CLR 26/03 A3009 RMK AO2
KHAF 161715Z AUTO 03009KT 7SM CLR 28/00 A3009 RMK AO2
KHAF 161650Z AUTO 03007KT 8SM CLR 27/M01 A3009 RMK AO2
KHAF 161635Z AUTO 04004KT 5SM HZ CLR 27/M02 A3009 RMK AO2
KHAF 161615Z AUTO 06007KT 8SM CLR 25/M01 A3009 RMK AO2
KHAF 161550Z AUTO 8SM 25/M03 A3008 RMK AO2
KHAF 161515Z AUTO 05009KT 6SM HZ CLR 24/M02 A3006 RMK AO2
KHAF 161455Z AUTO 00000KT 5SM HZ CLR 17/00 A3006 RMK AO2
KHAF 161430Z AUTO 00000KT 7SM CLR 17/00 A3006 RMK AO2
KHAF 161415Z AUTO 06007KT 7SM CLR 15/01 A3006 RMK AO2
KHAF 161355Z AUTO 00000KT 9SM CLR 16/02 A3005 RMK AO2
KHAF 161335Z AUTO 28003KT 9SM CLR 15/02 A3005 RMK AO2
KHAF 161310Z AUTO 32006KT 10SM CLR 15/04 A3005 RMK AO2
KHAF 161255Z AUTO 32005KT 6SM HZ FEW041 13/03 A3005 RMK AO2
KHAF 161235Z AUTO 00000KT 6SM HZ CLR 10/02 A3005 RMK AO2
KHAF 161210Z AUTO 00000KT 5SM HZ CLR 09/03 A3005 RMK AO2
KHAF 161150Z AUTO 00000KT 6SM HZ CLR 09/02 A3005 RMK AO2
KHAF 161135Z AUTO 33003KT 5SM HZ CLR 09/03 A3005 RMK AO2
KHAF 161115Z AUTO 31003KT 5SM HZ CLR 10/03 A3005 RMK AO2
KHAF 161055Z AUTO 00000KT 5SM HZ FEW050 10/03 A3005 RMK AO2
KHAF 161030Z AUTO 00000KT 5SM HZ CLR 13/05 A3006 RMK AO2
KHAF 161015Z AUTO 32006KT 6SM HZ CLR 12/03 A3006 RMK AO2
KHAF 160955Z AUTO 32004KT 5SM HZ CLR 09/03 A3006 RMK AO2
KHAF 160930Z AUTO 00000KT 7SM CLR 10/02 A3007 RMK AO2
KHAF 160915Z AUTO 00000KT 6SM HZ FEW055 11/02 A3007 RMK AO2
KHAF 160855Z AUTO 00000KT 9SM FEW055 11/02 A3007 RMK AO2
KHAF 160830Z AUTO 31003KT 7SM FEW055 12/02 A3007 RMK AO2
KHAF 160810Z AUTO 30004KT 6SM HZ FEW048 SCT055 14/02 A3006 RMK AO2
KHAF 160755Z AUTO 00000KT 7SM FEW055 10/03 A3006 RMK AO2
KHAF 160735Z AUTO 00000KT 6SM HZ FEW055 12/03 A3006 RMK AO2
KHAF 160710Z AUTO 00000KT 8SM FEW055 12/03 A3007 RMK AO2
KHAF 160655Z AUTO 00000KT 8SM FEW055 14/03 A3007 RMK AO2
KHAF 160635Z AUTO 00000KT 6SM HZ CLR 14/02 A3007 RMK AO2
KHAF 160610Z AUTO 00000KT 5SM HZ CLR 14/02 A3007 RMK AO2
KHAF 160550Z AUTO 00000KT 5SM HZ CLR 13/03 A3007 RMK AO2
KHAF 160535Z AUTO 00000KT 7SM CLR 12/03 A3007 RMK AO2
KHAF 160515Z AUTO 00000KT 5SM HZ CLR 13/03 A3007 RMK AO2
KHAF 160450Z AUTO 00000KT 7SM CLR 14/04 A3007 RMK AO2
KHAF 160435Z AUTO 00000KT 5SM HZ CLR 15/03 A3007 RMK AO2
KHAF 160415Z AUTO 00000KT 8SM CLR 15/04 A3006 RMK AO2
KHAF 160355Z AUTO 01003KT 5SM HZ CLR 14/05 A3006 RMK AO2
KHAF 160330Z AUTO 00000KT 5SM HZ 13/05 A3006 RMK AO2
KHAF 160315Z AUTO 00000KT A3006 RMK AO2
KHAF 160055Z AUTO 00000KT 4SM HZ CLR 23/07 A3004 RMK AO2
KHAF 160035Z AUTO 00000KT 4SM HZ CLR 24/07 A3004 RMK AO2
KHAF 160010Z AUTO 00000KT 6SM -RA 22/07 A3004 RMK AO2
KHAF 152355Z AUTO A3004 RMK AO2
KHAF 152315Z AUTO 16004KT 5SM HZ CLR 23/08 A3005 RMK AO2
KHAF 152250Z AUTO 15006KT 6SM HZ CLR 25/07 A3005 RMK AO2
KHAF 152235Z AUTO 25004KT 9SM 27/02 A3005 RMK AO2
KHAF 152155Z AUTO 00000KT 10SM CLR 26/03 A3005 RMK AO2
KHAF 152130Z AUTO 28005KT 10SM 25/03 A3005 RMK AO2
KHAF 152010Z AUTO 30008KT 10SM CLR 27/01 A3007 RMK AO2
KHAF 151955Z AUTO 31008KT 10SM CLR 27/00 A3007 RMK AO2
KHAF 151755Z AUTO 05008G14KT 10SM 26/01 A3006 RMK AO2
KHAF 151630Z AUTO 07009KT 10SM CLR 23/00 A3006 RMK AO2
KHAF 151615Z AUTO 06009KT 10SM CLR 23/00 A3006 RMK AO2
KHAF 151555Z AUTO 06006KT 10SM CLR 22/00 A3005 RMK AO2
KHAF 151535Z AUTO 09007KT 10SM CLR 21/00 A3005 RMK AO2
KHAF 151510Z AUTO 11006KT 040V170 10SM CLR 20/00 A3004 RMK AO2
KHAF 151455Z AUTO 10009G16KT 060V120 10SM CLR 20/00 A3003 RMK AO2
KHAF 151435Z AUTO 04008KT 10SM CLR 20/00 A3003 RMK AO2
KHAF 151415Z AUTO 02007KT 10SM CLR 20/00 A3003 RMK AO2
KHAF 151355Z AUTO 04005KT 10SM FEW060 21/M01 A3003 RMK AO2